createdAt,value
2023-03-03T00:01:04.839Z,12.43
2023-03-03T00:03:33.392Z,14.93
2023-03-03T00:06:04.008Z,20.73
2023-03-03T00:08:32.803Z,11.63
2023-03-03T00:11:03.155Z,13.00
2023-03-03T00:13:32.138Z,13.87
2023-03-03T00:16:14.529Z,12.67
2023-03-03T00:18:44.273Z,13.50
2023-03-03T00:21:25.692Z,13.23
2023-03-03T00:23:55.231Z,12.80
2023-03-03T00:26:24.933Z,13.17
2023-03-03T00:28:54.590Z,11.67
2023-03-03T00:31:24.691Z,13.53
2023-03-03T00:33:54.853Z,14.33
2023-03-03T00:36:32.795Z,14.23
2023-03-03T00:39:17.483Z,15.40
2023-03-03T00:41:45.412Z,14.93
2023-03-03T00:44:33.594Z,15.00
2023-03-03T00:47:04.582Z,13.63
2023-03-03T00:49:33.321Z,15.67
2023-03-03T00:52:02.711Z,13.73
2023-03-03T00:54:30.617Z,10.93
2023-03-03T00:56:58.429Z,14.70
2023-03-03T00:59:26.346Z,15.07
2023-03-03T01:01:54.322Z,13.97
2023-03-03T01:04:22.276Z,14.47
2023-03-03T01:06:50.166Z,16.67
2023-03-03T01:09:19.473Z,16.57
2023-03-03T01:11:47.446Z,19.10
2023-03-03T01:14:16.796Z,16.70
2023-03-03T01:16:44.617Z,14.80
2023-03-03T01:19:12.513Z,15.30
2023-03-03T01:21:40.791Z,16.10
2023-03-03T01:24:08.792Z,16.00
2023-03-03T01:26:38.247Z,17.00
2023-03-03T01:29:06.532Z,16.50
2023-03-03T01:31:34.911Z,18.27
2023-03-03T01:34:02.816Z,19.27
2023-03-03T01:36:31.087Z,17.07
2023-03-03T01:38:58.915Z,13.30
2023-03-03T01:41:28.986Z,23.40
2023-03-03T01:43:58.260Z,18.43
2023-03-03T01:46:47.986Z,17.40
2023-03-03T01:49:17.585Z,16.30
2023-03-03T01:51:50.283Z,16.40
2023-03-03T01:54:21.741Z,17.93
2023-03-03T01:56:51.537Z,21.87
2023-03-03T01:59:23.064Z,18.00
2023-03-03T02:01:51.370Z,18.93
2023-03-03T02:04:21.883Z,20.77
2023-03-03T02:06:53.937Z,17.80
2023-03-03T02:09:28.866Z,17.00
2023-03-03T02:12:00.620Z,16.97
2023-03-03T02:14:29.874Z,18.87
2023-03-03T02:16:57.806Z,16.97
2023-03-03T02:19:32.885Z,20.60
2023-03-03T02:22:02.145Z,21.07
2023-03-03T02:24:35.451Z,20.00
2023-03-03T02:27:04.877Z,15.77
2023-03-03T02:29:32.886Z,19.40
2023-03-03T02:32:01.165Z,17.93
2023-03-03T02:34:29.070Z,18.13
2023-03-03T02:36:56.891Z,19.10
2023-03-03T02:39:26.573Z,18.97
2023-03-03T02:41:56.976Z,17.83
2023-03-03T02:44:32.563Z,22.60
2023-03-03T02:47:01.356Z,17.03
2023-03-03T02:49:30.947Z,24.03
2023-03-03T02:51:59.645Z,19.97
2023-03-03T02:54:30.240Z,19.73
2023-03-03T02:56:59.239Z,17.07
2023-03-03T02:59:28.220Z,21.33
2023-03-03T03:01:59.307Z,18.60
2023-03-03T03:04:28.054Z,22.37
2023-03-03T03:06:57.401Z,21.40
2023-03-03T03:09:28.607Z,19.33
2023-03-03T03:11:56.877Z,22.30
2023-03-03T03:14:27.028Z,22.37
2023-03-03T03:16:55.953Z,21.10
2023-03-03T03:19:25.208Z,22.00
2023-03-03T03:21:53.064Z,20.60
2023-03-03T03:24:21.845Z,28.00
2023-03-03T03:26:56.234Z,22.80
2023-03-03T03:29:25.466Z,26.23
2023-03-03T03:31:54.000Z,30.50
2023-03-03T03:34:21.940Z,30.23
2023-03-03T03:36:53.086Z,32.00
2023-03-03T03:39:23.247Z,30.30
2023-03-03T03:41:52.715Z,24.80
2023-03-03T03:44:20.556Z,25.30
2023-03-03T03:46:49.232Z,27.43
2023-03-03T03:49:18.384Z,26.20
2023-03-03T03:51:47.884Z,30.10
2023-03-03T03:54:20.722Z,29.40
2023-03-03T03:56:48.705Z,27.70
2023-03-03T03:59:16.607Z,30.90
2023-03-03T04:01:44.540Z,33.83
2023-03-03T04:04:12.492Z,28.20
2023-03-03T04:06:41.045Z,32.97
2023-03-03T04:09:09.375Z,30.10
2023-03-03T04:11:38.663Z,34.53
2023-03-03T04:14:08.381Z,32.70
2023-03-03T04:16:37.353Z,34.73
2023-03-03T04:19:05.254Z,33.27
2023-03-03T04:21:35.078Z,37.70
2023-03-03T04:24:03.732Z,35.90
2023-03-03T04:26:32.207Z,34.83
2023-03-03T04:29:03.179Z,38.30
2023-03-03T04:31:31.301Z,38.30
2023-03-03T04:34:00.043Z,35.50
2023-03-03T04:36:28.726Z,44.67
2023-03-03T04:38:56.733Z,37.27
2023-03-03T04:41:24.556Z,39.20
2023-03-03T04:43:52.433Z,46.43
2023-03-03T04:46:21.690Z,39.17
2023-03-03T04:48:49.641Z,38.20
2023-03-03T04:51:18.703Z,41.10
2023-03-03T04:53:46.833Z,38.90
2023-03-03T04:56:15.154Z,42.27
2023-03-03T04:58:43.311Z,40.73
2023-03-03T05:01:13.940Z,37.00
2023-03-03T05:03:43.403Z,39.73
2023-03-03T05:06:11.292Z,41.47
2023-03-03T05:08:39.157Z,38.30
2023-03-03T05:11:07.405Z,41.47
2023-03-03T05:13:35.232Z,43.47
2023-03-03T05:16:03.207Z,49.60
2023-03-03T05:18:31.127Z,48.17
2023-03-03T05:21:00.434Z,47.13
2023-03-03T05:23:28.308Z,45.30
2023-03-03T05:25:56.159Z,37.90
2023-03-03T05:28:24.031Z,44.50
2023-03-03T05:30:52.215Z,42.30
2023-03-03T05:33:20.128Z,47.13
2023-03-03T05:35:48.019Z,42.50
2023-03-03T05:38:17.363Z,53.23
2023-03-03T05:40:45.344Z,48.20
2023-03-03T05:43:13.186Z,48.43
2023-03-03T05:45:41.099Z,54.77
2023-03-03T05:48:10.222Z,53.10
2023-03-03T05:50:38.744Z,45.63
2023-03-03T05:53:06.721Z,56.53
2023-03-03T05:55:35.956Z,43.90
2023-03-03T05:58:03.786Z,53.53
2023-03-03T06:00:31.595Z,51.10
2023-03-03T06:02:59.510Z,51.93
2023-03-03T06:05:27.702Z,50.07
2023-03-03T06:07:55.615Z,52.23
2023-03-03T06:10:23.476Z,54.70
2023-03-03T06:12:56.228Z,55.90
2023-03-03T06:15:24.863Z,58.50
2023-03-03T06:17:53.225Z,47.57
2023-03-03T06:20:21.294Z,51.10
2023-03-03T06:22:49.169Z,53.37
2023-03-03T06:25:17.352Z,57.83
2023-03-03T06:27:45.312Z,62.83
2023-03-03T06:30:15.283Z,56.30
2023-03-03T06:32:43.229Z,50.57
2023-03-03T06:35:11.272Z,57.20
2023-03-03T06:37:39.191Z,55.47
2023-03-03T06:40:08.636Z,54.37
2023-03-03T06:42:37.910Z,52.97
2023-03-03T06:45:06.513Z,46.80
2023-03-03T06:47:35.743Z,57.03
2023-03-03T06:50:03.541Z,54.97
2023-03-03T06:52:31.389Z,59.80
2023-03-03T06:55:00.720Z,50.83
2023-03-03T06:57:30.526Z,53.70
2023-03-03T06:59:59.936Z,61.43
2023-03-03T07:02:27.812Z,53.50
2023-03-03T07:04:57.907Z,52.70
2023-03-03T07:07:27.162Z,57.00
2023-03-03T07:09:56.459Z,50.70
2023-03-03T07:12:25.920Z,53.93
2023-03-03T07:14:59.329Z,57.60
2023-03-03T07:17:27.550Z,57.57
2023-03-03T07:19:55.432Z,56.70
2023-03-03T07:22:26.808Z,57.00
2023-03-03T07:24:56.311Z,56.80
2023-03-03T07:27:28.797Z,53.80
2023-03-03T07:30:13.660Z,60.57
2023-03-03T07:32:44.081Z,54.53
2023-03-03T07:35:30.860Z,61.43
2023-03-03T07:38:00.557Z,51.10
2023-03-03T07:40:36.127Z,50.40
2023-03-03T07:43:29.104Z,53.50
2023-03-03T07:46:02.729Z,49.30
2023-03-03T07:48:33.093Z,55.40
2023-03-03T07:51:05.200Z,48.70
2023-03-03T07:53:38.082Z,51.40
2023-03-03T07:56:17.166Z,51.60
2023-03-03T07:58:45.485Z,47.03
2023-03-03T08:01:42.562Z,48.50
2023-03-03T08:04:30.272Z,54.53
2023-03-03T08:06:59.438Z,53.83
2023-03-03T08:09:51.023Z,53.40
2023-03-03T08:12:39.897Z,52.60
2023-03-03T08:15:23.098Z,49.30
2023-03-03T08:17:52.080Z,49.13
2023-03-03T08:20:45.558Z,46.73
2023-03-03T08:23:14.192Z,47.53
2023-03-03T08:25:43.675Z,49.13
2023-03-03T08:28:12.584Z,46.53
2023-03-03T08:30:40.602Z,49.40
2023-03-03T08:33:08.595Z,46.60
2023-03-03T08:35:36.736Z,49.53
2023-03-03T08:38:04.869Z,48.60
2023-03-03T08:40:33.061Z,52.10
2023-03-03T08:43:06.137Z,43.10
2023-03-03T08:45:34.499Z,49.70
2023-03-03T08:48:04.159Z,51.90
2023-03-03T08:50:33.764Z,47.83
2023-03-03T08:53:01.616Z,56.40
2023-03-03T08:55:29.860Z,60.57
2023-03-03T08:57:57.929Z,45.50
2023-03-03T09:00:27.563Z,52.70
2023-03-03T09:02:56.708Z,46.93
2023-03-03T09:05:25.499Z,51.47
2023-03-03T09:07:54.045Z,49.63
2023-03-03T09:10:27.562Z,48.63
2023-03-03T09:12:58.237Z,46.50
2023-03-03T09:15:29.057Z,46.87
2023-03-03T09:17:59.114Z,46.80
2023-03-03T09:20:36.174Z,42.57
2023-03-03T09:23:25.638Z,46.07
2023-03-03T09:25:53.812Z,42.20
2023-03-03T09:28:25.620Z,44.00
2023-03-03T09:30:56.331Z,42.10
2023-03-03T09:33:30.378Z,44.70
2023-03-03T09:36:04.671Z,41.40
2023-03-03T09:38:34.054Z,42.03
2023-03-03T09:41:17.482Z,38.13
2023-03-03T09:43:57.097Z,39.77
2023-03-03T09:46:32.599Z,41.37
2023-03-03T09:49:08.112Z,38.20
2023-03-03T09:52:01.295Z,40.87
2023-03-03T09:54:44.343Z,41.00
2023-03-03T09:57:15.897Z,41.40
2023-03-03T09:59:53.191Z,42.97
2023-03-03T10:02:32.417Z,36.77
2023-03-03T10:05:30.141Z,49.17
2023-03-03T10:08:07.601Z,37.37
2023-03-03T10:10:47.084Z,40.17
2023-03-03T10:13:24.265Z,40.37
2023-03-03T10:16:06.116Z,39.73
2023-03-03T10:18:40.801Z,38.90
2023-03-03T10:21:11.835Z,39.27
2023-03-03T10:23:58.695Z,37.00
2023-03-03T10:26:45.721Z,39.07
2023-03-03T10:29:37.086Z,35.83
2023-03-03T10:32:25.858Z,34.97
2023-03-03T10:35:12.907Z,37.97
2023-03-03T10:37:48.909Z,41.27
2023-03-03T10:40:23.139Z,35.17
2023-03-03T10:43:31.138Z,34.83
2023-03-03T10:46:20.650Z,32.23
2023-03-03T10:49:04.552Z,33.80
2023-03-03T10:51:42.385Z,37.07
2023-03-03T10:54:30.510Z,34.47
2023-03-03T10:57:04.537Z,33.03
2023-03-03T10:59:45.433Z,34.10
2023-03-03T11:02:19.429Z,29.57
2023-03-03T11:05:00.227Z,30.63
2023-03-03T11:07:34.431Z,35.80
2023-03-03T11:10:22.658Z,33.50
2023-03-03T11:12:58.746Z,30.50
2023-03-03T11:15:43.514Z,37.37
2023-03-03T11:18:17.190Z,30.50
2023-03-03T11:20:52.742Z,29.90
2023-03-03T11:23:36.545Z,35.40
2023-03-03T11:26:10.626Z,31.13
2023-03-03T11:28:52.986Z,33.33
2023-03-03T11:31:26.351Z,33.97
2023-03-03T11:34:01.544Z,28.93
2023-03-03T11:36:34.808Z,32.60
2023-03-03T11:39:06.286Z,32.63
2023-03-03T11:41:37.686Z,32.80
2023-03-03T11:44:12.571Z,32.37
2023-03-03T11:46:44.189Z,28.10
2023-03-03T11:49:17.187Z,30.97
2023-03-03T11:51:52.078Z,29.93
2023-03-03T11:54:26.353Z,27.87
2023-03-03T11:56:58.723Z,29.20
2023-03-03T11:59:39.239Z,28.70
2023-03-03T12:02:33.961Z,28.63
2023-03-03T12:05:08.122Z,29.77
2023-03-03T12:07:43.307Z,28.73
2023-03-03T12:10:21.507Z,29.37
2023-03-03T12:12:53.885Z,28.03
2023-03-03T12:15:29.071Z,29.40
2023-03-03T12:18:21.266Z,28.17
2023-03-03T12:20:53.725Z,26.63
2023-03-03T12:23:39.082Z,25.87
2023-03-03T12:26:12.641Z,28.43
2023-03-03T12:28:43.816Z,28.37
2023-03-03T12:31:25.319Z,25.63
2023-03-03T12:33:57.043Z,23.90
2023-03-03T12:36:38.757Z,27.13
2023-03-03T12:39:09.400Z,108.10
2023-03-03T12:41:42.009Z,23.90
2023-03-03T12:44:16.011Z,32.13
2023-03-03T12:46:47.410Z,25.73
2023-03-03T12:49:15.461Z,22.27
2023-03-03T12:51:52.060Z,25.57
2023-03-03T12:54:37.333Z,22.10
2023-03-03T12:57:14.211Z,21.77
2023-03-03T12:59:50.966Z,21.40
2023-03-03T13:02:43.894Z,18.60
2023-03-03T13:05:20.899Z,21.87
2023-03-03T13:07:56.540Z,19.60
2023-03-03T13:10:29.300Z,23.13
2023-03-03T13:13:02.886Z,21.80
2023-03-03T13:15:34.989Z,19.90
2023-03-03T13:18:19.233Z,18.33
2023-03-03T13:20:51.113Z,20.67
2023-03-03T13:23:29.105Z,20.70
2023-03-03T13:25:59.731Z,18.27
2023-03-03T13:28:33.164Z,18.63
2023-03-03T13:31:04.963Z,20.30
2023-03-03T13:33:35.864Z,20.80
2023-03-03T13:36:05.248Z,17.43
2023-03-03T13:38:37.117Z,16.73
2023-03-03T13:41:11.652Z,17.83
2023-03-03T13:43:46.043Z,19.10
2023-03-03T13:46:19.409Z,17.70
2023-03-03T13:49:05.562Z,17.50
2023-03-03T13:51:42.235Z,17.67
2023-03-03T13:54:17.115Z,19.93
2023-03-03T13:56:56.121Z,18.43
2023-03-03T13:59:31.086Z,16.17
2023-03-03T14:02:02.959Z,19.97
2023-03-03T14:04:34.374Z,18.60
2023-03-03T14:07:08.200Z,16.33
2023-03-03T14:09:46.071Z,21.07
2023-03-03T14:12:17.970Z,20.13
2023-03-03T14:14:55.828Z,15.63
2023-03-03T14:17:31.051Z,18.80
2023-03-03T14:20:07.323Z,18.10
2023-03-03T14:22:44.551Z,15.17
2023-03-03T14:25:13.741Z,18.90
2023-03-03T14:27:43.223Z,22.00
2023-03-03T14:30:30.296Z,16.17
2023-03-03T14:33:17.924Z,14.97
2023-03-03T14:35:51.436Z,15.23
2023-03-03T14:38:22.047Z,15.73
2023-03-03T14:40:50.671Z,14.50
2023-03-03T14:43:24.833Z,17.37
2023-03-03T14:45:55.217Z,17.53
2023-03-03T14:48:24.568Z,15.53
2023-03-03T14:50:54.022Z,17.10
2023-03-03T14:53:24.954Z,13.53
2023-03-03T14:55:54.143Z,14.97
2023-03-03T14:58:31.831Z,13.50
2023-03-03T15:01:15.450Z,12.13
2023-03-03T15:03:49.218Z,12.20
2023-03-03T15:06:38.338Z,15.30
2023-03-03T15:09:26.490Z,12.57
2023-03-03T15:11:55.380Z,13.17
2023-03-03T15:14:29.444Z,15.30
2023-03-03T15:17:17.595Z,18.30
2023-03-03T15:19:51.991Z,20.00
2023-03-03T15:22:26.498Z,30.80
2023-03-03T15:25:00.154Z,34.90
2023-03-03T15:27:31.310Z,29.83
2023-03-03T15:30:06.827Z,31.23
2023-03-03T15:32:43.400Z,27.00
2023-03-03T15:35:23.678Z,30.40
2023-03-03T15:37:56.307Z,21.83
2023-03-03T15:40:27.747Z,20.53
2023-03-03T15:43:02.565Z,21.37
2023-03-03T15:45:34.863Z,15.90
2023-03-03T15:48:15.580Z,12.00
2023-03-03T15:50:48.670Z,16.43
2023-03-03T15:53:28.669Z,12.17
2023-03-03T15:56:06.899Z,10.97
2023-03-03T15:58:51.205Z,9.80
2023-03-03T16:01:26.385Z,8.43
2023-03-03T16:03:57.437Z,8.70
2023-03-03T16:06:32.170Z,8.43
2023-03-03T16:09:04.495Z,10.87
2023-03-03T16:11:38.221Z,12.03
2023-03-03T16:14:19.591Z,12.20
2023-03-03T16:16:51.387Z,10.43
2023-03-03T16:19:34.331Z,10.90
2023-03-03T16:22:12.565Z,11.90
2023-03-03T16:24:46.889Z,12.90
2023-03-03T16:27:17.753Z,12.77
2023-03-03T16:29:58.447Z,11.90
2023-03-03T16:32:30.083Z,11.03
2023-03-03T16:35:01.663Z,14.13
2023-03-03T16:37:33.046Z,10.77
2023-03-03T16:40:09.003Z,11.67
2023-03-03T16:42:36.827Z,14.83
2023-03-03T16:45:22.233Z,12.33
2023-03-03T16:48:17.543Z,12.20
2023-03-03T16:50:52.084Z,13.53
2023-03-03T16:53:27.496Z,14.50
2023-03-03T16:56:02.906Z,14.70
2023-03-03T16:58:41.061Z,12.90
2023-03-03T17:01:12.900Z,11.40
2023-03-03T17:03:52.443Z,13.60
2023-03-03T17:06:24.909Z,14.60
2023-03-03T17:09:23.306Z,12.07
2023-03-03T17:12:05.640Z,11.67
2023-03-03T17:14:53.611Z,14.53
2023-03-03T17:17:27.562Z,14.03
2023-03-03T17:20:05.304Z,14.80
2023-03-03T17:22:46.362Z,17.33
2023-03-03T17:25:21.804Z,15.93
2023-03-03T17:28:00.521Z,13.53
2023-03-03T17:30:32.930Z,14.73
2023-03-03T17:33:25.685Z,13.70
2023-03-03T17:36:02.745Z,20.40
2023-03-03T17:38:43.581Z,15.63
2023-03-03T17:41:15.090Z,17.43
2023-03-03T17:43:47.913Z,12.87
2023-03-03T17:46:29.461Z,14.27
2023-03-03T17:49:22.921Z,13.07
2023-03-03T17:52:14.053Z,16.23
2023-03-03T17:55:06.550Z,16.47
2023-03-03T17:57:46.397Z,15.97
2023-03-03T18:00:27.901Z,11.90
2023-03-03T18:03:11.334Z,12.40
2023-03-03T18:05:56.001Z,16.80
2023-03-03T18:08:39.911Z,16.73
2023-03-03T18:11:35.733Z,13.70
2023-03-03T18:14:19.545Z,15.83
2023-03-03T18:17:20.922Z,12.37
2023-03-03T18:20:04.255Z,17.73
2023-03-03T18:22:34.116Z,15.53
2023-03-03T18:25:03.411Z,17.53
2023-03-03T18:27:34.972Z,12.30
2023-03-03T18:30:27.580Z,15.13
2023-03-03T18:33:08.822Z,12.80
2023-03-03T18:35:38.356Z,20.67
2023-03-03T18:38:30.456Z,14.80
2023-03-03T18:41:00.570Z,13.83
2023-03-03T18:43:55.756Z,14.23
2023-03-03T18:46:49.478Z,12.10
2023-03-03T18:49:18.300Z,13.33
2023-03-03T18:51:53.409Z,15.20
2023-03-03T18:54:31.088Z,13.30
2023-03-03T18:57:17.664Z,13.20
2023-03-03T19:00:11.390Z,13.63
2023-03-03T19:02:46.355Z,11.00
2023-03-03T19:05:23.310Z,12.03
2023-03-03T19:07:59.207Z,14.70
2023-03-03T19:10:55.593Z,14.17
2023-03-03T19:13:46.926Z,17.17
2023-03-03T19:16:37.790Z,15.63
2023-03-03T19:19:11.000Z,14.77
2023-03-03T19:21:40.770Z,11.87
2023-03-03T19:24:27.338Z,15.17
2023-03-03T19:27:16.749Z,12.20
2023-03-03T19:30:02.006Z,13.50
2023-03-03T19:32:44.713Z,14.10
2023-03-03T19:35:22.350Z,13.33
2023-03-03T19:37:56.767Z,15.80
2023-03-03T19:40:30.919Z,12.00
2023-03-03T19:43:06.110Z,13.13
2023-03-03T19:45:44.815Z,12.67
2023-03-03T19:48:21.092Z,13.90
2023-03-03T19:50:55.472Z,11.20
2023-03-03T19:53:32.430Z,14.87
2023-03-03T19:56:11.359Z,15.07
2023-03-03T19:58:47.696Z,15.37
2023-03-03T20:01:19.505Z,12.20
2023-03-03T20:04:08.413Z,18.20
2023-03-03T20:06:45.233Z,15.63
2023-03-03T20:09:21.926Z,17.30
2023-03-03T20:11:59.936Z,14.00
2023-03-03T20:14:39.449Z,16.40
2023-03-03T20:17:22.906Z,20.50
2023-03-03T20:19:57.645Z,14.63
2023-03-03T20:22:35.399Z,13.47
2023-03-03T20:25:14.467Z,11.27
2023-03-03T20:27:48.780Z,15.10
2023-03-03T20:30:28.812Z,14.33
2023-03-03T20:33:07.898Z,16.60
2023-03-03T20:35:44.425Z,16.90
2023-03-03T20:38:23.377Z,17.40
2023-03-03T20:40:56.841Z,15.07
2023-03-03T20:43:36.419Z,16.87
2023-03-03T20:46:10.648Z,15.57
2023-03-03T20:48:52.818Z,20.00
2023-03-03T20:51:27.986Z,25.70
2023-03-03T20:54:00.664Z,19.63
2023-03-03T20:56:33.126Z,13.83
2023-03-03T20:59:11.467Z,14.63
2023-03-03T21:01:44.386Z,13.20
2023-03-03T21:04:23.808Z,18.37
2023-03-03T21:06:53.484Z,16.20
2023-03-03T21:09:25.036Z,13.27
2023-03-03T21:11:53.499Z,15.80
2023-03-03T21:14:22.987Z,15.50
2023-03-03T21:16:51.999Z,13.40
2023-03-03T21:19:29.065Z,16.07
2023-03-03T21:22:01.832Z,14.70
2023-03-03T21:24:49.954Z,15.97
2023-03-03T21:27:29.069Z,15.60
2023-03-03T21:30:05.785Z,12.30
2023-03-03T21:32:39.930Z,17.27
2023-03-03T21:35:10.133Z,17.03
2023-03-03T21:37:51.013Z,12.60
2023-03-03T21:40:23.373Z,18.57
2023-03-03T21:42:52.124Z,14.20
2023-03-03T21:45:21.289Z,14.93
2023-03-03T21:47:49.568Z,14.23
2023-03-03T21:50:20.261Z,12.27
2023-03-03T21:52:50.020Z,14.77
2023-03-03T21:55:18.172Z,15.10
2023-03-03T21:57:46.078Z,15.53
2023-03-03T22:00:14.760Z,15.97
2023-03-03T22:02:42.845Z,13.97
2023-03-03T22:05:10.915Z,13.30
2023-03-03T22:07:38.795Z,13.87
2023-03-03T22:10:09.977Z,15.10
2023-03-03T22:12:37.999Z,15.23
2023-03-03T22:15:07.090Z,15.97
2023-03-03T22:17:34.963Z,17.03
2023-03-03T22:20:03.062Z,15.23
2023-03-03T22:22:30.946Z,14.20
2023-03-03T22:24:58.833Z,15.30
2023-03-03T22:27:28.113Z,14.67
2023-03-03T22:29:56.013Z,15.23
2023-03-03T22:32:23.927Z,16.67
2023-03-03T22:34:51.816Z,15.80
2023-03-03T22:37:19.690Z,15.23
2023-03-03T22:39:47.572Z,14.77
2023-03-03T22:42:15.470Z,16.63
2023-03-03T22:44:45.991Z,14.80
2023-03-03T22:47:14.044Z,15.43
2023-03-03T22:49:41.931Z,16.67
2023-03-03T22:52:09.847Z,15.03
2023-03-03T22:54:37.733Z,16.23
2023-03-03T22:57:05.646Z,16.17
2023-03-03T22:59:34.578Z,18.40
2023-03-03T23:02:03.955Z,22.40
2023-03-03T23:04:33.040Z,15.53
2023-03-03T23:07:01.269Z,18.57
2023-03-03T23:09:29.553Z,21.03
2023-03-03T23:11:57.436Z,18.57
2023-03-03T23:14:25.430Z,14.80
2023-03-03T23:16:53.306Z,19.30
2023-03-03T23:19:22.581Z,15.47
2023-03-03T23:21:50.491Z,14.10
2023-03-03T23:24:18.361Z,17.73
2023-03-03T23:26:46.308Z,16.10
2023-03-03T23:29:14.183Z,15.83
2023-03-03T23:31:42.130Z,20.47
2023-03-03T23:34:10.001Z,16.23
2023-03-03T23:36:39.280Z,15.73
2023-03-03T23:39:07.476Z,19.90
2023-03-03T23:41:36.434Z,20.23
2023-03-03T23:44:04.359Z,19.73
2023-03-03T23:46:32.329Z,16.80
2023-03-03T23:49:02.058Z,19.47
2023-03-03T23:51:30.155Z,20.00
2023-03-03T23:53:59.443Z,17.60
2023-03-03T23:56:27.436Z,17.47
2023-03-03T23:58:55.307Z,18.23
